M I D A S
Marine Information and Data Acquisition System
Tripno 734 of the Zeeleeuw from 2004-06-11 06:30:01 to 2004-06-11 14:35:07
Back to CruiseResearch ActivitiesStationsMapUnderway DataData graphs

EquipmentUnitsComments
TimeDGPSUTC
LatitudeDGPSDM.mWGS84
LongitudeDGPSDM.mWGS84
SpeedMeteo Stationm/sRelative wind speed
DirectionMeteo StationdegRelative wind direction
TemperatureMeteo Stationdeg CelciusAir temperature
PressureMeteo StationPaAtmospheric pressure
HumidityMeteo Station%Relative humidity
Missing or incorrect values are displayed as -999
Metereological data collected by the RV Zeeleeuw from 2004-06-11 06:30:01 to 2004-06-11 14:35:07
                                                                                    Next 1000 lines
Time Latitude Longitude Speed Direction Temperature Pressure Humidity
2004-06-11 06:30:09 51°14.064 2°55.485 7.2 299 15.9 101820 86
2004-06-11 06:30:14 51°14.074 2°55.476 7 305 15.9 101820 86
2004-06-11 06:30:19 51°14.084 2°55.468 6.2 304 15.9 101830 86
2004-06-11 06:30:23 51°14.092 2°55.461 5.5 338 15.9 101830 86
2004-06-11 06:30:29 51°14.105 2°55.45 6.1 350 15.9 101820 85
2004-06-11 06:30:34 51°14.116 2°55.441 7.3 343 15.9 101820 85
2004-06-11 06:30:39 51°14.127 2°55.431 8 330 15.9 101810 85
2004-06-11 06:30:43 51°14.137 2°55.423 9.6 324 15.9 101810 85
2004-06-11 06:30:49 51°14.151 2°55.41 9.9 346 15.9 101820 85
2004-06-11 06:30:54 51°14.163 2°55.399 9.3 328 15.9 101820 85
2004-06-11 06:30:59 51°14.175 2°55.386 8.5 310 15.9 101820 85
2004-06-11 06:31:04 51°14.187 2°55.373 9.1 330 15.9 101820 85
2004-06-11 06:31:10 51°14.201 2°55.356 9 334 15.9 101820 85
2004-06-11 06:31:14 51°14.211 2°55.344 11.5 323 15.9 101820 85
2004-06-11 06:31:19 51°14.222 2°55.329 11.9 326 16 101810 85
2004-06-11 06:31:23 51°14.231 2°55.315 11.4 321 16 101810 85
2004-06-11 06:31:29 51°14.244 2°55.294 12.8 328 15.9 101810 85
2004-06-11 06:31:34 51°14.255 2°55.276 12.7 325 15.9 101810 85
2004-06-11 06:31:39 51°14.265 2°55.257 12.8 331 15.9 101810 86
2004-06-11 06:31:43 51°14.274 2°55.241 13.5 328 15.9 101810 86
2004-06-11 06:31:49 51°14.287 2°55.218 13.2 326 16 101800 86
2004-06-11 06:31:54 51°14.298 2°55.198 14 327 16 101800 86
2004-06-11 06:31:59 51°14.31 2°55.177 12.2 344 16 101800 86
2004-06-11 06:32:04 51°14.321 2°55.157 10.9 338 16 101800 86
2004-06-11 06:32:09 51°14.332 2°55.136 14.8 315 16 101800 86
2004-06-11 06:32:14 51°14.344 2°55.115 13.7 330 16 101800 86
2004-06-11 06:32:19 51°14.356 2°55.094 13.4 325 16 101790 86
2004-06-11 06:32:24 51°14.367 2°55.073 14.8 324 16 101790 86
2004-06-11 06:32:29 51°14.379 2°55.052 14.5 327 15.9 101790 86
2004-06-11 06:32:33 51°14.389 2°55.035 14.4 328 15.9 101790 86
2004-06-11 06:32:38 51°14.401 2°55.015 13.4 333 16 101790 86
2004-06-11 06:32:43 51°14.412 2°54.994 13.5 328 16 101790 86
2004-06-11 06:32:49 51°14.427 2°54.97 13.7 334 15.9 101780 86
2004-06-11 06:32:54 51°14.438 2°54.949 13.3 338 15.9 101780 86
2004-06-11 06:32:59 51°14.448 2°54.927 14.2 337 15.9 101780 86
2004-06-11 06:33:03 51°14.454 2°54.909 14.7 342 15.9 101780 86
2004-06-11 06:33:09 51°14.463 2°54.882 14.3 341 15.9 101790 86
2004-06-11 06:33:14 51°14.469 2°54.859 14.2 341 15.9 101790 86
2004-06-11 06:33:19 51°14.475 2°54.835 14.2 342 15.9 101790 86
2004-06-11 06:33:25 51°14.48 2°54.806 13.3 343 15.9 101790 86
2004-06-11 06:33:29 51°14.484 2°54.787 14.3 342 15.9 101790 86
2004-06-11 06:33:34 51°14.487 2°54.762 13.6 342 15.9 101790 86
2004-06-11 06:33:39 51°14.49 2°54.738 14.6 344 15.9 101790 86
2004-06-11 06:33:44 51°14.494 2°54.713 15.3 344 15.9 101780 86
2004-06-11 06:33:49 51°14.497 2°54.689 14.5 344 15.9 101790 86
2004-06-11 06:33:54 51°14.501 2°54.664 14.8 344 15.9 101790 86
2004-06-11 06:33:59 51°14.504 2°54.64 14.9 347 15.9 101790 86
2004-06-11 06:34:04 51°14.506 2°54.615 14.6 348 15.9 101790 86
2004-06-11 06:34:09 51°14.508 2°54.59 14.4 347 15.9 101780 86
2004-06-11 06:34:14 51°14.51 2°54.566 13.5 347 15.9 101780 86
2004-06-11 06:34:19 51°14.512 2°54.541 14.5 347 15.9 101780 86
2004-06-11 06:34:24 51°14.514 2°54.516 14.9 345 15.9 101780 86
2004-06-11 06:34:29 51°14.516 2°54.491 14.7 345 15.9 101790 86
2004-06-11 06:34:34 51°14.518 2°54.466 15.1 345 15.9 101790 86
2004-06-11 06:34:39 51°14.52 2°54.441 15.1 349 15.9 101780 86
2004-06-11 06:34:43 51°14.522 2°54.421 16.6 345 15.9 101780 86
2004-06-11 06:34:49 51°14.525 2°54.391 16.5 345 16 101790 87
2004-06-11 06:34:54 51°14.527 2°54.366 15.1 347 16 101790 87
2004-06-11 06:34:59 51°14.528 2°54.34 14.2 350 15.9 101790 87
2004-06-11 06:35:03 51°14.529 2°54.32 15.8 350 15.9 101790 87
2004-06-11 06:35:09 51°14.531 2°54.29 15.7 349 15.9 101790 87
2004-06-11 06:35:14 51°14.531 2°54.265 16   15.9 101790 87
2004-06-11 06:35:19 51°14.532 2°54.24 15.3 344 15.9 101790 87
2004-06-11 06:35:23 51°14.533 2°54.219 14.7 349 15.9 101790 87
2004-06-11 06:35:29 51°14.535 2°54.189 15 352 15.9 101790 87
2004-06-11 06:35:34 51°14.537 2°54.164 14.3 352 15.9 101790 87
2004-06-11 06:35:39 51°14.538 2°54.139 14.5 351 15.8 101790 87
2004-06-11 06:35:43 51°14.538 2°54.118 16.3 355 15.8 101790 87
2004-06-11 06:35:49 51°14.54 2°54.088 14.9 350 15.9 101790 87
2004-06-11 06:35:54 51°14.541 2°54.063 15.3 349 15.9 101790 87
2004-06-11 06:35:59 51°14.543 2°54.037 14.8 348 15.9 101790 87
2004-06-11 06:36:03 51°14.544 2°54.017 14.3 345 15.9 101790 87
2004-06-11 06:36:07 51°14.546 2°53.997 14.3 351 15.8 101790 87
2004-06-11 06:36:14 51°14.549 2°53.962 13.9 349 15.8 101790 87
2004-06-11 06:36:19 51°14.551 2°53.937 15.7 349 15.8 101790 87
2004-06-11 06:36:23 51°14.553 2°53.917 15.8 353 15.8 101790 87
2004-06-11 06:36:29 51°14.554 2°53.887 15 350 15.8 101790 87
2004-06-11 06:36:34 51°14.555 2°53.862 14.8 353 15.8 101790 87
2004-06-11 06:36:39 51°14.556 2°53.837 15.3 355 15.8 101800 87
2004-06-11 06:36:43 51°14.556 2°53.818 15.5 356 15.8 101800 87
2004-06-11 06:36:49 51°14.556 2°53.788 15.4 3 15.8 101800 87
2004-06-11 06:36:54 51°14.556 2°53.763 14.8 356 15.8 101800 87
2004-06-11 06:36:59 51°14.556 2°53.739 14.6 354 15.8 101790 87
2004-06-11 06:37:04 51°14.556 2°53.714 14.6 353 15.8 101790 87
2004-06-11 06:37:09 51°14.556 2°53.689 14.5 350 15.8 101800 87
2004-06-11 06:37:14 51°14.556 2°53.665 15.5 350 15.8 101800 87
2004-06-11 06:37:19 51°14.556 2°53.64 14.6 349 15.8 101800 87
2004-06-11 06:37:23 51°14.556 2°53.621 15.6 351 15.8 101800 87
2004-06-11 06:37:29 51°14.557 2°53.591 15.4 351 15.8 101810 87
2004-06-11 06:37:34 51°14.557 2°53.567 16.1 349 15.8 101810 87
2004-06-11 06:37:39 51°14.557 2°53.542 15.1 350 15.8 101800 87
2004-06-11 06:37:43 51°14.557 2°53.522 15.4 352 15.8 101800 87
2004-06-11 06:37:49 51°14.556 2°53.493 15.7 353 15.8 101790 88
2004-06-11 06:37:54 51°14.555 2°53.468 14.6 351 15.8 101790 88
2004-06-11 06:37:59 51°14.555 2°53.443 15.1 349 15.8 101790 88
2004-06-11 06:38:03 51°14.555 2°53.423 13.8 345 15.8 101790 88
2004-06-11 06:38:09 51°14.557 2°53.395 14.7 344 15.8 101790 88
2004-06-11 06:38:14 51°14.561 2°53.372 14.1 337 15.8 101790 88
2004-06-11 06:38:19 51°14.566 2°53.352 13.3 332 15.8 101800 88
2004-06-11 06:38:24 51°14.571 2°53.334 12.2 325 15.8 101800 88
2004-06-11 06:38:29 51°14.577 2°53.32 12 319 15.8 101810 88
2004-06-11 06:38:34 51°14.584 2°53.307 12.7 228 15.8 101810 88
2004-06-11 06:38:39 51°14.591 2°53.296 11.9 229 15.8 101790 88
2004-06-11 06:38:43 51°14.597 2°53.288 9.5 307 15.8 101790 88
2004-06-11 06:38:49 51°14.606 2°53.278 9.7 305 15.8 101810 88
2004-06-11 06:38:54 51°14.613 2°53.272 8.5 300 15.8 101810 88
2004-06-11 06:38:58 51°14.619 2°53.268 8.8 302 15.8 101800 88
2004-06-11 06:39:03 51°14.625 2°53.264 10.4 296 15.8 101800 88
2004-06-11 06:39:09 51°14.633 2°53.26 9.5 295 15.8 101810 88
2004-06-11 06:39:14 51°14.639 2°53.258 9.5 295 15.8 101810 88
2004-06-11 06:39:19 51°14.645 2°53.256 10.4 288 15.8 101820 88
2004-06-11 06:39:22 51°14.648 2°53.256 10.4 278 15.8 101820 88
2004-06-11 06:39:29 51°14.655 2°53.256 9.7 276 15.8 101820 88
2004-06-11 06:39:34 51°14.661 2°53.256 9.6 276 15.8 101820 88
2004-06-11 06:39:39 51°14.665 2°53.257 11.8 271 15.8 101820 88
2004-06-11 06:39:43 51°14.669 2°53.258 9.1 262 15.8 101820 88
2004-06-11 06:39:49 51°14.675 2°53.26 9.7 268 15.8 101820 88
2004-06-11 06:39:54 51°14.679 2°53.262 9.7 266 15.8 101820 88
2004-06-11 06:39:59 51°14.684 2°53.264 8.1 261 15.8 101820 89
2004-06-11 06:40:04 51°14.688 2°53.265 8.2 260 15.8 101820 89
2004-06-11 06:40:09 51°14.693 2°53.268 7.8 261 15.8 101830 88
2004-06-11 06:40:14 51°14.697 2°53.269 8.8 264 15.8 101830 88
2004-06-11 06:40:19 51°14.701 2°53.271 9.6 270 15.8 101820 88
2004-06-11 06:40:23 51°14.704 2°53.273 10.8 266 15.8 101820 88
2004-06-11 06:40:29 51°14.709 2°53.275 9.6 266 15.7 101830 88
2004-06-11 06:40:34 51°14.713 2°53.278 9.7 262 15.7 101830 88
2004-06-11 06:40:39 51°14.717 2°53.28 10.1 263 15.7 101830 88
2004-06-11 06:40:43 51°14.72 2°53.282 10.3 264 15.7 101830 88
2004-06-11 06:40:49 51°14.724 2°53.284 9.8 264 15.8 101830 88
2004-06-11 06:40:54 51°14.728 2°53.286 10.6 266 15.8 101830 88
2004-06-11 06:40:59 51°14.731 2°53.288 9.9 266 15.8 101830 88
2004-06-11 06:41:04 51°14.735 2°53.291 10.4 268 15.8 101820 89
2004-06-11 06:41:09 51°14.738 2°53.293 9.2 272 15.8 101820 89
2004-06-11 06:41:14 51°14.741 2°53.295 10.3 268 15.7 101820 88
2004-06-11 06:41:19 51°14.745 2°53.297 10.6 270 15.7 101830 88
2004-06-11 06:41:23 51°14.747 2°53.299 8.4 273 15.7 101830 88
2004-06-11 06:41:29 51°14.751 2°53.301 11.2 270 15.7 101820 88
2004-06-11 06:41:35 51°14.754 2°53.304 10.9 270 15.7 101820 88
2004-06-11 06:41:40 51°14.757 2°53.305 10.4 270 15.7 101830 88
2004-06-11 06:41:44 51°14.76 2°53.307 10.4 275 15.7 101830 88
2004-06-11 06:41:50 51°14.763 2°53.309 10.4 271 15.8 101830 89
2004-06-11 06:41:54 51°14.766 2°53.311 10.3 266 15.8 101830 89
2004-06-11 06:41:59 51°14.768 2°53.313 11.6 272 15.7 101830 89
2004-06-11 06:42:04 51°14.771 2°53.315 10.4 270 15.7 101830 89
2004-06-11 06:42:09 51°14.774 2°53.316 10 269 15.7 101830 89
2004-06-11 06:42:14 51°14.776 2°53.319 10.5 273 15.7 101830 89
2004-06-11 06:42:18 51°14.778 2°53.321 11 274 15.7 101820 88
2004-06-11 06:42:23 51°14.78 2°53.323 9 276 15.7 101820 88
2004-06-11 06:42:30 51°14.784 2°53.326 9.4 273 15.7 101820 88
2004-06-11 06:42:34 51°14.786 2°53.328 11 274 15.7 101820 88
2004-06-11 06:42:39 51°14.788 2°53.331 9.2 276 15.7 101820 88
2004-06-11 06:42:43 51°14.79 2°53.333 9.7 271 15.7 101820 88
2004-06-11 06:42:49 51°14.793 2°53.335 7.8 272 15.7 101810 88
2004-06-11 06:42:54 51°14.796 2°53.338 10.3 272 15.7 101810 88
2004-06-11 06:42:59 51°14.798 2°53.341 8 273 15.7 101820 89
2004-06-11 06:43:03 51°14.8 2°53.343 8.7 278 15.7 101820 89
2004-06-11 06:43:09 51°14.803 2°53.346 8.7 275 15.8 101820 89
2004-06-11 06:43:14 51°14.805 2°53.348 10.3 269 15.8 101820 89
2004-06-11 06:43:19 51°14.807 2°53.351 9.3 272 15.8 101810 89
2004-06-11 06:43:23 51°14.809 2°53.353 9.3 271 15.8 101810 89
2004-06-11 06:43:30 51°14.812 2°53.357 8.3 278 15.8 101830 89
2004-06-11 06:43:34 51°14.814 2°53.359 9.3 268 15.8 101830 89
2004-06-11 06:43:39 51°14.816 2°53.361 7.4 275 15.8 101820 89
2004-06-11 06:43:43 51°14.818 2°53.363 8.5 273 15.8 101820 89
2004-06-11 06:43:49 51°14.82 2°53.366 9 289 15.8 101820 89
2004-06-11 06:43:54 51°14.823 2°53.369 9.2 274 15.8 101820 89
2004-06-11 06:43:59 51°14.825 2°53.372 8.3 275 15.8 101820 89
2004-06-11 06:44:03 51°14.826 2°53.374 9 275 15.8 101820 89
2004-06-11 06:44:09 51°14.829 2°53.377 8.8 274 15.8 101820 89
2004-06-11 06:44:14 51°14.831 2°53.38 7.9 265 15.8 101820 89
2004-06-11 06:44:19 51°14.833 2°53.382 8.7 265 15.8 101820 89
2004-06-11 06:44:23 51°14.834 2°53.384 9.1 267 15.8 101820 89
2004-06-11 06:44:29 51°14.837 2°53.388 7.8 260 15.8 101820 89
2004-06-11 06:44:34 51°14.839 2°53.39 8.7 273 15.8 101820 89
2004-06-11 06:44:39 51°14.841 2°53.393 8.6 268 15.9 101820 90
2004-06-11 06:44:43 51°14.842 2°53.395 8.9 276 15.9 101820 90
2004-06-11 06:44:49 51°14.845 2°53.398 8.7 267 15.9 101820 90
2004-06-11 06:44:54 51°14.847 2°53.401 8.5 271 15.9 101820 90
2004-06-11 06:44:59 51°14.849 2°53.403 8.7 276 15.9 101820 90
2004-06-11 06:45:03 51°14.85 2°53.405 8.7 270 15.9 101820 90
2004-06-11 06:45:09 51°14.853 2°53.408 9.7 274 15.9 101820 90
2004-06-11 06:45:14 51°14.854 2°53.411 8.2 279 15.9 101820 90
2004-06-11 06:45:19 51°14.856 2°53.414 8.5 276 15.9 101820 90
2004-06-11 06:45:23 51°14.858 2°53.416 9.7 275 15.9 101820 90
2004-06-11 06:45:29 51°14.86 2°53.42 9.2 275 15.9 101820 90
2004-06-11 06:45:34 51°14.862 2°53.423 8.7 271 15.9 101820 90
2004-06-11 06:45:39 51°14.864 2°53.425 10.5 271 15.9 101820 90
2004-06-11 06:45:43 51°14.865 2°53.428 9.5 266 15.9 101820 90
2004-06-11 06:45:49 51°14.868 2°53.431 11.1 271 15.9 101820 90
2004-06-11 06:45:54 51°14.87 2°53.434 9.8 281 15.9 101820 90
2004-06-11 06:45:59 51°14.872 2°53.437 9.7 279 15.9 101810 89
2004-06-11 06:46:03 51°14.873 2°53.439 9.3 283 15.9 101810 89
2004-06-11 06:46:09 51°14.875 2°53.443 9.7 280 15.9 101820 89
2004-06-11 06:46:14 51°14.877 2°53.445 9.6 282 15.9 101820 89
2004-06-11 06:46:19 51°14.879 2°53.449 9.7 276 15.8 101820 89
2004-06-11 06:46:23 51°14.88 2°53.451 10.4 274 15.8 101820 89
2004-06-11 06:46:29 51°14.883 2°53.455 9.4 274 15.8 101820 89
2004-06-11 06:46:33 51°14.884 2°53.457 9.8 274 15.8 101820 89
2004-06-11 06:46:39 51°14.887 2°53.46 9 271 15.8 101810 89
2004-06-11 06:46:43 51°14.888 2°53.462 10.2 275 15.8 101810 89
2004-06-11 06:46:50 51°14.891 2°53.467 10 277 15.8 101810 89
2004-06-11 06:46:54 51°14.892 2°53.469 11 274 15.8 101810 89
2004-06-11 06:46:59 51°14.894 2°53.472 10.5 277 15.8 101810 89
2004-06-11 06:47:03 51°14.895 2°53.474 10 275 15.8 101810 89
2004-06-11 06:47:09 51°14.898 2°53.477 10.5 276 15.8 101820 89
2004-06-11 06:47:14 51°14.9 2°53.48 9.9 279 15.8 101820 89
2004-06-11 06:47:19 51°14.902 2°53.483 9.4 284 15.7 101810 89
2004-06-11 06:47:23 51°14.903 2°53.485 9.2 283 15.7 101810 89
2004-06-11 06:47:27 51°14.905 2°53.487 9.5 284 15.7 101810 89
2004-06-11 06:47:34 51°14.91 2°53.489 9.1 297 15.7 101810 89
2004-06-11 06:47:39 51°14.913 2°53.49 8.5 301 15.7 101810 89
2004-06-11 06:47:44 51°14.918 2°53.489 9.1 305 15.7 101810 89
2004-06-11 06:47:50 51°14.923 2°53.486 8.8 311 15.8 101820 89
2004-06-11 06:47:55 51°14.927 2°53.482 10.8 318 15.8 101820 89
2004-06-11 06:48:00 51°14.932 2°53.477 9.7 322 15.8 101800 89
2004-06-11 06:48:03 51°14.934 2°53.473 10.5 325 15.8 101800 89
2004-06-11 06:48:10 51°14.939 2°53.462 11.2 332 15.8 101810 89
2004-06-11 06:48:15 51°14.943 2°53.453 11 335 15.8 101810 89
2004-06-11 06:48:19 51°14.945 2°53.444 10.9 338 15.8 101800 89
2004-06-11 06:48:22 51°14.946 2°53.436 11 348 15.8 101800 89
2004-06-11 06:48:29 51°14.948 2°53.417 12.1 357 15.8 101800 89
2004-06-11 06:48:34 51°14.948 2°53.401 12.5 357 15.8 101800 89
2004-06-11 06:48:39 51°14.947 2°53.385 13.4 358 15.8 101800 89
2004-06-11 06:48:43 51°14.945 2°53.372 13.9 359 15.8 101800 89
2004-06-11 06:48:49 51°14.941 2°53.351 14.8 1 15.8 101800 89
2004-06-11 06:48:54 51°14.938 2°53.333 14.2 359 15.8 101800 89
2004-06-11 06:48:59 51°14.934 2°53.315 14 1 15.8 101800 90
2004-06-11 06:49:04 51°14.931 2°53.295 13.4 359 15.8 101800 90
2004-06-11 06:49:09 51°14.928 2°53.276 13.9 360 15.8 101800 89
2004-06-11 06:49:14 51°14.926 2°53.256 14.3 358 15.8 101800 89
2004-06-11 06:49:19 51°14.924 2°53.235 14.7 357 15.8 101810 89
2004-06-11 06:49:23 51°14.922 2°53.218 14 352 15.8 101810 89
2004-06-11 06:49:29 51°14.92 2°53.192 14.4 357 15.7 101800 89
2004-06-11 06:49:34 51°14.919 2°53.171 15.1 354 15.7 101800 89
2004-06-11 06:49:39 51°14.917 2°53.149 14.3 353 15.7 101800 89
2004-06-11 06:49:43 51°14.916 2°53.131 13.7 353 15.7 101800 89
2004-06-11 06:49:49 51°14.915 2°53.104 13.1 354 15.7 101810 89
2004-06-11 06:49:54 51°14.914 2°53.082 14.2 357 15.7 101810 89
2004-06-11 06:49:59 51°14.913 2°53.06 13.1 359 15.7 101790 89
2004-06-11 06:50:03 51°14.912 2°53.042 15.5 357 15.7 101790 89
2004-06-11 06:50:09 51°14.91 2°53.014 15.1 359 15.7 101800 89
2004-06-11 06:50:14 51°14.909 2°52.992 15.2 358 15.7 101800 89
2004-06-11 06:50:19 51°14.908 2°52.969 14.3 356 15.7 101810 89
2004-06-11 06:50:24 51°14.906 2°52.946 14.9 358 15.7 101810 89
2004-06-11 06:50:29 51°14.905 2°52.924 15.1 356 15.7 101800 89
2004-06-11 06:50:34 51°14.904 2°52.901 15.2 355 15.7 101800 89
2004-06-11 06:50:38 51°14.903 2°52.883 13.7 357 15.7 101800 89
2004-06-11 06:50:43 51°14.902 2°52.86 15.4   15.7 101800 89
2004-06-11 06:50:49 51°14.901 2°52.833 14.2 358 15.7 101800 89
2004-06-11 06:50:54 51°14.9 2°52.811 15.8 355 15.7 101800 89
2004-06-11 06:50:59 51°14.899 2°52.788 16.7 354 15.7 101800 89
2004-06-11 06:51:03 51°14.898 2°52.77 14.8 353 15.7 101800 89
2004-06-11 06:51:09 51°14.896 2°52.743 16.3 355 15.7 101790 89
2004-06-11 06:51:14 51°14.895 2°52.721 16.1 355 15.7 101790 89
2004-06-11 06:51:19 51°14.894 2°52.698 16.1 354 15.7 101800 89
2004-06-11 06:51:23 51°14.893 2°52.68 14.6 349 15.7 101800 89
2004-06-11 06:51:29 51°14.892 2°52.653 15.5 352 15.7 101800 89
2004-06-11 06:51:34 51°14.89 2°52.63 16.2 355 15.7 101800 89
2004-06-11 06:51:39 51°14.889 2°52.608 15.7 355 15.7 101800 89
2004-06-11 06:51:43 51°14.888 2°52.589 14.4 354 15.7 101800 89
2004-06-11 06:51:49 51°14.886 2°52.562 14.5 355 15.6 101800 89
2004-06-11 06:51:54 51°14.885 2°52.54 14.8 357 15.6 101800 89
2004-06-11 06:51:59 51°14.884 2°52.517 15 357 15.6 101810 89
2004-06-11 06:52:03 51°14.883 2°52.499 14.5 353 15.6 101810 89
2004-06-11 06:52:09 51°14.881 2°52.472 14.7 352 15.6 101790 89
2004-06-11 06:52:14 51°14.88 2°52.449 14.6 355 15.6 101790 89
2004-06-11 06:52:19 51°14.879 2°52.426 14.5 359 15.6 101810 89
2004-06-11 06:52:23 51°14.878 2°52.408 15.6 353 15.6 101810 89
2004-06-11 06:52:29 51°14.877 2°52.38 14.6 355 15.7 101800 89
2004-06-11 06:52:34 51°14.876 2°52.358 15.8 355 15.7 101800 89
2004-06-11 06:52:39 51°14.874 2°52.335 15.1 354 15.7 101810 89
2004-06-11 06:52:44 51°14.873 2°52.312 15.6 355 15.7 101810 89
2004-06-11 06:52:49 51°14.872 2°52.29 15.5 354 15.7 101800 89
2004-06-11 06:52:54 51°14.871 2°52.267 13.9 359 15.7 101800 89
2004-06-11 06:52:59 51°14.869 2°52.244 14.5 359 15.7 101800 89
2004-06-11 06:53:03 51°14.868 2°52.226 14.6 358 15.7 101800 89
2004-06-11 06:53:09 51°14.867 2°52.199 15.9 360 15.7 101800 89
2004-06-11 06:53:14 51°14.866 2°52.176 15.3 359 15.7 101800 89
2004-06-11 06:53:19 51°14.865 2°52.153 15.7 356 15.7 101800 89
2004-06-11 06:53:23 51°14.864 2°52.135 14.1 356 15.7 101800 89
2004-06-11 06:53:29 51°14.863 2°52.107 15 355 15.7 101810 89
2004-06-11 06:53:34 51°14.862 2°52.084 14.5 357 15.7 101810 89
2004-06-11 06:53:39 51°14.86 2°52.062 15 355 15.7 101800 89
2004-06-11 06:53:43 51°14.859 2°52.043 14.6 4 15.7 101800 89
2004-06-11 06:53:49 51°14.858 2°52.016 15.2 355 15.7 101800 89
2004-06-11 06:53:54 51°14.857 2°51.993 15.1 359 15.7 101800 89
2004-06-11 06:53:59 51°14.855 2°51.97 15 359 15.7 101800 88
2004-06-11 06:54:04 51°14.854 2°51.947 14.5 356 15.7 101800 88
2004-06-11 06:54:09 51°14.853 2°51.924 15.2 356 15.7 101810 89
2004-06-11 06:54:13 51°14.852 2°51.906 16.2   15.7 101810 89
2004-06-11 06:54:18 51°14.851 2°51.883 15.2 1 15.7 101810 89
2004-06-11 06:54:23 51°14.85 2°51.86 15.8 358 15.7 101810 89
2004-06-11 06:54:29 51°14.848 2°51.833 15 359 15.7 101800 89
2004-06-11 06:54:34 51°14.847 2°51.81 15.4 357 15.7 101800 89
2004-06-11 06:54:39 51°14.846 2°51.787 16.5 358 15.7 101800 89
2004-06-11 06:54:43 51°14.845 2°51.769 16.7 356 15.7 101800 89
2004-06-11 06:54:49 51°14.844 2°51.741 15.3 358 15.7 101800 88
2004-06-11 06:54:54 51°14.843 2°51.718 16.2 358 15.7 101800 88
2004-06-11 06:54:59 51°14.842 2°51.696 15.8 356 15.7 101800 88
2004-06-11 06:55:03 51°14.841 2°51.677 15.8 355 15.7 101800 88
2004-06-11 06:55:09 51°14.839 2°51.65 14.6 354 15.7 101800 89
2004-06-11 06:55:13 51°14.838 2°51.633 13.6 354 15.7 101800 89
2004-06-11 06:55:18 51°14.837 2°51.614 14.1 355 15.7 101800 89
2004-06-11 06:55:25 51°14.834 2°51.591 13.8 1 15.7 101800 89
2004-06-11 06:55:29 51°14.832 2°51.58 13.1 5 15.7 101790 89
2004-06-11 06:55:34 51°14.829 2°51.567 12.8 3 15.7 101790 89
2004-06-11 06:55:39 51°14.826 2°51.556 12.9 9 15.7 101800 89
2004-06-11 06:55:43 51°14.823 2°51.548 11.5 10 15.7 101800 89
2004-06-11 06:55:49 51°14.819 2°51.538 12.2 8 15.7 101800 89
2004-06-11 06:55:54 51°14.816 2°51.53 11.7 14 15.7 101800 89
2004-06-11 06:55:59 51°14.813 2°51.523 10.2 23 15.7 101810 89
2004-06-11 06:56:04 51°14.809 2°51.516 10.7 21 15.7 101810 89
2004-06-11 06:56:09 51°14.806 2°51.511 11.1 26 15.7 101810 89
2004-06-11 06:56:14 51°14.802 2°51.506 10.7 23 15.7 101810 89
2004-06-11 06:56:19 51°14.799 2°51.501 10 25 15.7 101820 89
2004-06-11 06:56:23 51°14.796 2°51.497 11.5 26 15.7 101820 89
2004-06-11 06:56:29 51°14.792 2°51.493 11.6 27 15.7 101810 89
2004-06-11 06:56:34 51°14.789 2°51.489 10.3 25 15.7 101810 89
2004-06-11 06:56:39 51°14.786 2°51.486 11.3 24 15.7 101800 89
2004-06-11 06:56:44 51°14.783 2°51.482 10.7 28 15.7 101800 89
2004-06-11 06:56:49 51°14.78 2°51.479 10.6 29 15.7 101800 89
2004-06-11 06:56:53 51°14.777 2°51.477 11 28 15.7 101800 89
2004-06-11 06:56:59 51°14.774 2°51.474 10.9 27 15.7 101800 89
2004-06-11 06:57:04 51°14.772 2°51.472 10.6 26 15.7 101800 89
2004-06-11 06:57:09 51°14.769 2°51.47 10.9 36 15.7 101800 89
2004-06-11 06:57:14 51°14.766 2°51.468 9.5 35 15.7 101800 89
2004-06-11 06:57:19 51°14.764 2°51.465 10.4 28 15.6 101800 88
2004-06-11 06:57:23 51°14.762 2°51.464 9.8 29 15.6 101800 88
2004-06-11 06:57:29 51°14.76 2°51.462 9.8 25 15.6 101800 88
2004-06-11 06:57:34 51°14.757 2°51.46 9.5 29 15.6 101800 88
2004-06-11 06:57:39 51°14.755 2°51.459 9.6 21 15.6 101810 89
2004-06-11 06:57:43 51°14.754 2°51.457 9.3 28 15.6 101810 89
2004-06-11 06:57:49 51°14.752 2°51.456 10.3 26 15.6 101800 89
2004-06-11 06:57:54 51°14.75 2°51.454 9.5 25 15.6 101800 89
2004-06-11 06:57:59 51°14.748 2°51.453 9.8 22 15.6 101800 89
2004-06-11 06:58:04 51°14.746 2°51.451 9.1 28 15.6 101800 89
2004-06-11 06:58:09 51°14.744 2°51.449 10.6 25 15.6 101810 89
2004-06-11 06:58:14 51°14.742 2°51.446 9.8 18 15.6 101810 89
2004-06-11 06:58:19 51°14.74 2°51.444 10 19 15.6 101810 89
2004-06-11 06:58:24 51°14.738 2°51.441 9.7 7 15.6 101810 89
2004-06-11 06:58:29 51°14.737 2°51.439 9.2 8 15.6 101810 89
2004-06-11 06:58:34 51°14.735 2°51.435 10.8 8 15.6 101810 89
2004-06-11 06:58:39 51°14.733 2°51.432 9.2 10 15.6 101800 89
2004-06-11 06:58:43 51°14.732 2°51.429 11.4 8 15.6 101800 89
2004-06-11 06:58:49 51°14.731 2°51.423 11.6 5 15.6 101800 89
2004-06-11 06:58:54 51°14.729 2°51.419 11.2 359 15.6 101810 89
2004-06-11 06:58:59 51°14.728 2°51.414 11.3 356 15.6 101810 89
2004-06-11 06:59:03 51°14.727 2°51.41 11.2 355 15.6 101810 89
2004-06-11 06:59:09 51°14.727 2°51.404 12.3 354 15.6 101810 89
2004-06-11 06:59:14 51°14.726 2°51.398 11.8 355 15.6 101810 89
2004-06-11 06:59:19 51°14.726 2°51.393 11.3 354 15.6 101810 89
2004-06-11 06:59:25 51°14.725 2°51.386 11.6 352 15.6 101810 89
2004-06-11 06:59:29 51°14.725 2°51.381 11 357 15.6 101810 89
2004-06-11 06:59:34 51°14.724 2°51.375 11.3 352 15.6 101810 89
2004-06-11 06:59:39 51°14.724 2°51.369 11.9 357 15.6 101810 89
2004-06-11 06:59:43 51°14.723 2°51.365 11.5 359 15.6 101810 89
2004-06-11 06:59:49 51°14.722 2°51.357 11.9 5 15.6 101810 89
2004-06-11 06:59:54 51°14.721 2°51.351 11.6 359 15.5 101810 89
2004-06-11 06:59:59 51°14.72 2°51.346 11.1 3 15.5 101810 89
2004-06-11 07:00:03 51°14.719 2°51.341 10.9   15.5 101810 89
2004-06-11 07:00:09 51°14.718 2°51.334 10.6 359 15.5 101810 89
2004-06-11 07:00:14 51°14.716 2°51.328 11.7 2 15.5 101810 89
2004-06-11 07:00:19 51°14.715 2°51.323 9.4 6 15.5 101810 88
2004-06-11 07:00:23 51°14.713 2°51.318 11 4 15.5 101810 88
2004-06-11 07:00:29 51°14.711 2°51.311 11.1 5 15.5 101810 88
2004-06-11 07:00:34 51°14.709 2°51.305 10.1 11 15.5 101820 89
2004-06-11 07:00:39 51°14.707 2°51.3 11.3 12 15.5 101820 89
2004-06-11 07:00:43 51°14.705 2°51.296 11.9 20 15.6 101810 89
2004-06-11 07:00:49 51°14.703 2°51.289 11.1 15 15.6 101810 89
2004-06-11 07:00:54 51°14.7 2°51.284 11.9 13 15.6 101820 90
2004-06-11 07:00:59 51°14.698 2°51.279 10.3 19 15.6 101810 90
2004-06-11 07:01:04 51°14.696 2°51.275 11.1 11 15.6 101810 90
2004-06-11 07:01:08 51°14.694 2°51.272 11.2 16 15.6 101810 90
2004-06-11 07:01:15 51°14.691 2°51.265 11.9 16 15.6 101810 89
2004-06-11 07:01:18 51°14.689 2°51.263 11.4 19 15.6 101810 89
2004-06-11 07:01:25 51°14.686 2°51.257 11.4 23 15.6 101820 89
2004-06-11 07:01:30 51°14.684 2°51.252 11 14 15.6 101820 89
2004-06-11 07:01:34 51°14.682 2°51.249 11.8 15 15.6 101810 89
2004-06-11 07:01:40 51°14.68 2°51.244 11.4 12 15.6 101810 89
2004-06-11 07:01:43 51°14.679 2°51.241 11.7 14 15.6 101820 89
2004-06-11 07:01:49 51°14.676 2°51.236 11.1 10 15.6 101820 89
2004-06-11 07:01:54 51°14.675 2°51.232 11 15 15.6 101810 89
2004-06-11 07:01:59 51°14.673 2°51.228 10.5 11 15.6 101810 89
2004-06-11 07:02:03 51°14.672 2°51.225 11 14 15.5 101820 89
2004-06-11 07:02:09 51°14.67 2°51.22 10.3 15 15.5 101820 89
2004-06-11 07:02:14 51°14.668 2°51.216 10.5 9 15.6 101810 89
2004-06-11 07:02:19 51°14.667 2°51.211 10.3 9 15.6 101810 89
2004-06-11 07:02:25 51°14.665 2°51.206 11.2 7 15.6 101810 89
2004-06-11 07:02:29 51°14.664 2°51.203 12.5 6 15.6 101810 89
2004-06-11 07:02:34 51°14.662 2°51.198 4.4 4 15.6 101820 90
2004-06-11 07:02:39 51°14.661 2°51.194 10.1 8 15.6 101820 90
2004-06-11 07:02:43 51°14.66 2°51.19 10.8 6 15.6 101810 90
2004-06-11 07:02:49 51°14.658 2°51.185 12.5 5 15.6 101810 90
2004-06-11 07:02:54 51°14.657 2°51.18 11.9 2 15.6 101820 90
2004-06-11 07:02:59 51°14.656 2°51.175 11.8 1 15.6 101820 90
2004-06-11 07:03:03 51°14.655 2°51.172 12 1 15.6 101820 89
2004-06-11 07:03:09 51°14.654 2°51.166 11.8 2 15.6 101820 89
2004-06-11 07:03:14 51°14.653 2°51.161 11.5 9 15.6 101810 89
2004-06-11 07:03:19 51°14.652 2°51.156 11.1 2 15.6 101810 89
2004-06-11 07:03:23 51°14.652 2°51.153 10.9 4 15.6 101810 89
2004-06-11 07:03:29 51°14.651 2°51.147 10.3 9 15.6 101810 89
2004-06-11 07:03:34 51°14.65 2°51.142 11 4 15.6 101820 89
2004-06-11 07:03:39 51°14.649 2°51.137 11.4 5 15.6 101820 89
2004-06-11 07:03:43 51°14.649 2°51.132 10.8 5 15.6 101820 89
2004-06-11 07:03:47 51°14.648 2°51.128 10.3 7 15.6 101820 89
2004-06-11 07:03:54 51°14.647 2°51.121 10.7 9 15.6 101820 89
2004-06-11 07:03:59 51°14.646 2°51.116 11.4 5 15.6 101820 89
2004-06-11 07:04:03 51°14.646 2°51.112 11 10 15.6 101820 89
2004-06-11 07:04:09 51°14.645 2°51.106 11.2 7 15.6 101820 89
2004-06-11 07:04:14 51°14.644 2°51.101 11.1 7 15.6 101820 89
2004-06-11 07:04:19 51°14.644 2°51.096 11.8 9 15.6 101810 89
2004-06-11 07:04:23 51°14.643 2°51.092 11.4 11 15.6 101810 89
2004-06-11 07:04:29 51°14.642 2°51.086 11.5 4 15.6 101810 89
2004-06-11 07:04:34 51°14.642 2°51.081 12 5 15.6 101820 89
2004-06-11 07:04:39 51°14.641 2°51.076 11.2 4 15.6 101820 89
2004-06-11 07:04:43 51°14.64 2°51.072 11.1 11 15.6 101820 89
2004-06-11 07:04:49 51°14.639 2°51.066 11.4 4 15.6 101820 89
2004-06-11 07:04:54 51°14.638 2°51.06 11 5 15.6 101810 89
2004-06-11 07:04:59 51°14.638 2°51.055 10.2 3 15.6 101810 89
2004-06-11 07:05:03 51°14.637 2°51.051 10.4 7 15.6 101810 89
2004-06-11 07:05:09 51°14.636 2°51.045 10.9 8 15.6 101810 89
2004-06-11 07:05:13 51°14.635 2°51.041 11.6 5 15.6 101810 89
2004-06-11 07:05:18 51°14.634 2°51.036 11.4 7 15.6 101810 89
2004-06-11 07:05:25 51°14.633 2°51.03 10.3 9 15.6 101820 89
2004-06-11 07:05:29 51°14.632 2°51.026 10.9 7 15.6 101820 89
2004-06-11 07:05:34 51°14.631 2°51.021 10 5 15.6 101820 89
2004-06-11 07:05:39 51°14.63 2°51.016 10.9 7 15.6 101820 89
2004-06-11 07:05:43 51°14.63 2°51.012 11 4 15.6 101810 89
2004-06-11 07:05:48 51°14.628 2°51.009 10.6 5 15.6 101810 89
2004-06-11 07:05:54 51°14.627 2°51.004 10.5 3 15.6 101820 89
2004-06-11 07:05:59 51°14.626 2°51 10.1 4 15.6 101820 89
2004-06-11 07:06:03 51°14.626 2°50.996 9.4 5 15.6 101820 89
2004-06-11 07:06:09 51°14.625 2°50.991 11 3 15.6 101820 89
2004-06-11 07:06:14 51°14.624 2°50.986 10.9   15.6 101820 89
2004-06-11 07:06:18 51°14.623 2°50.982 10.3 1 15.6 101820 89
2004-06-11 07:06:25 51°14.622 2°50.976 10.1 2 15.6 101820 89
2004-06-11 07:06:30 51°14.621 2°50.971 9.8 1 15.6 101820 89
2004-06-11 07:06:34 51°14.62 2°50.967 10.3 5 15.6 101820 89
2004-06-11 07:06:38 51°14.619 2°50.964 10.2 5 15.6 101820 89
2004-06-11 07:06:43 51°14.619 2°50.959 10 6 15.6 101820 89
2004-06-11 07:06:49 51°14.618 2°50.954 11.3 3 15.6 101820 89
2004-06-11 07:06:54 51°14.617 2°50.948 11.5 1 15.6 101820 89
2004-06-11 07:06:59 51°14.616 2°50.943 11.4 5 15.6 101820 89
2004-06-11 07:07:03 51°14.615 2°50.939 11.1 6 15.6 101820 89
2004-06-11 07:07:09 51°14.614 2°50.934 10.5 359 15.6 101820 89
2004-06-11 07:07:13 51°14.614 2°50.93 10.3 1 15.6 101820 89
2004-06-11 07:07:19 51°14.613 2°50.925 10   15.6 101820 89
2004-06-11 07:07:23 51°14.612 2°50.921 10.4 3 15.6 101820 89
2004-06-11 07:07:29 51°14.611 2°50.916 10.2 3 15.6 101820 89
2004-06-11 07:07:34 51°14.61 2°50.911 10.1 2 15.6 101820 89
2004-06-11 07:07:39 51°14.61 2°50.907 10.3 358 15.6 101820 89
2004-06-11 07:07:43 51°14.609 2°50.903 11.5 2 15.6 101820 89
2004-06-11 07:07:49 51°14.608 2°50.897 11.8 4 15.6 101820 89
2004-06-11 07:07:54 51°14.607 2°50.893 11 1 15.6 101820 89
2004-06-11 07:07:59 51°14.607 2°50.888 11.3 2 15.6 101820 90
2004-06-11 07:08:03 51°14.606 2°50.885 11.2 2 15.6 101820 90
2004-06-11 07:08:09 51°14.605 2°50.879 11.3 359 15.6 101820 90
2004-06-11 07:08:14 51°14.604 2°50.875 11.1 3 15.6 101810 89
2004-06-11 07:08:19 51°14.604 2°50.871 10 9 15.6 101810 89
2004-06-11 07:08:23 51°14.603 2°50.867 10.7 9 15.6 101820 89
2004-06-11 07:08:29 51°14.602 2°50.862 10.2 12 15.6 101820 89
2004-06-11 07:08:33 51°14.601 2°50.858 11.1 4 15.6 101820 89
2004-06-11 07:08:39 51°14.6 2°50.853 10.8 8 15.6 101820 89
2004-06-11 07:08:43 51°14.599 2°50.85 11.1 9 15.6 101810 89
2004-06-11 07:08:50 51°14.598 2°50.844 11.1 12 15.8 101820 89
2004-06-11 07:08:54 51°14.597 2°50.841 10.9 5 15.8 101820 89
2004-06-11 07:08:59 51°14.596 2°50.837 10.7 4 15.6 101820 89
2004-06-11 07:09:03 51°14.595 2°50.833 10.3 11 15.6 101820 89
2004-06-11 07:09:09 51°14.594 2°50.828 10.3   15.6 101820 89
2004-06-11 07:09:14 51°14.593 2°50.824 10.8   15.6 101820 89
2004-06-11 07:09:18 51°14.592 2°50.821 10.8 5 15.6 101820 89
2004-06-11 07:09:24 51°14.59 2°50.816 11.5 10 15.6 101820 89
2004-06-11 07:09:30 51°14.589 2°50.811 11.8 9 15.6 101820 89
2004-06-11 07:09:34 51°14.588 2°50.808 12 11 15.6 101820 89
2004-06-11 07:09:40 51°14.586 2°50.803 11.1 12 15.6 101820 89
2004-06-11 07:09:44 51°14.585 2°50.799 11.6 11 15.6 101820 89
2004-06-11 07:09:50 51°14.584 2°50.794 9.5 3 15.6 101820 89
2004-06-11 07:09:54 51°14.583 2°50.791 10.8 4 15.6 101810 89
2004-06-11 07:09:59 51°14.582 2°50.787 11 6 15.6 101820 89
2004-06-11 07:10:05 51°14.58 2°50.782 11.1 4 15.6 101820 89
2004-06-11 07:10:09 51°14.58 2°50.779 10.7 4 15.6 101820 89
2004-06-11 07:10:15 51°14.578 2°50.774 10.8 7 15.6 101810 89
2004-06-11 07:10:19 51°14.577 2°50.77 10.9   15.6 101820 89
2004-06-11 07:10:23 51°14.577 2°50.767 9.7 8 15.6 101820 89
2004-06-11 07:10:30 51°14.575 2°50.761 9.6 3 15.6 101820 89
2004-06-11 07:10:34 51°14.575 2°50.757 9.1 3 15.6 101820 89
2004-06-11 07:10:39 51°14.574 2°50.753 9.4 3 15.6 101820 89
2004-06-11 07:10:43 51°14.573 2°50.75 11 8 15.6 101820 89
2004-06-11 07:10:49 51°14.572 2°50.744 10.8 5 15.6 101820 89
2004-06-11 07:10:54 51°14.571 2°50.74 9.9 2 15.6 101820 89
2004-06-11 07:10:59 51°14.571 2°50.735 10.6 3 15.6 101820 89
2004-06-11 07:11:03 51°14.57 2°50.731 9.5 10 15.6 101820 89
2004-06-11 07:11:09 51°14.569 2°50.726 10.1 359 15.6 101820 89
2004-06-11 07:11:14 51°14.568 2°50.721 10.7 6 15.6 101820 89
2004-06-11 07:11:19 51°14.568 2°50.717 9.9 8 15.7 101820 89
2004-06-11 07:11:23 51°14.567 2°50.713 9.8 4 15.7 101820 89
2004-06-11 07:11:30 51°14.566 2°50.707 10.8 1 15.7 101820 89
2004-06-11 07:11:34 51°14.566 2°50.703 10.2 5 15.7 101820 89
2004-06-11 07:11:39 51°14.565 2°50.698 11.2 3 15.7 101820 89
2004-06-11 07:11:42 51°14.565 2°50.696 10.7 359 15.7 101820 89
2004-06-11 07:11:47 51°14.564 2°50.691 10.7 4 15.7 101820 89
2004-06-11 07:11:54 51°14.563 2°50.685 10.8 2 15.7 101820 89
2004-06-11 07:11:59 51°14.562 2°50.68 10.5 4 15.7 101820 89
2004-06-11 07:12:03 51°14.562 2°50.676 10.3 2 15.7 101820 89
2004-06-11 07:12:09 51°14.561 2°50.671 10.4 1 15.7 101820 89
2004-06-11 07:12:14 51°14.561 2°50.666 10.3 3 15.7 101820 89
2004-06-11 07:12:19 51°14.56 2°50.662 10 5 15.7 101820 89
2004-06-11 07:12:23 51°14.56 2°50.658 11.2 7 15.7 101820 88
2004-06-11 07:12:28 51°14.559 2°50.653 10 8 15.7 101820 88
2004-06-11 07:12:34 51°14.558 2°50.648 10.7 9 15.7 101820 88
2004-06-11 07:12:39 51°14.558 2°50.644 10.2 6 15.7 101820 88
2004-06-11 07:12:44 51°14.557 2°50.639 11.2 8 15.7 101810 88
2004-06-11 07:12:49 51°14.556 2°50.635 9.9 4 15.7 101810 88
2004-06-11 07:12:54 51°14.555 2°50.631 10.5 5 15.7 101820 89
2004-06-11 07:12:59 51°14.555 2°50.626 10.7 4 15.7 101820 89
2004-06-11 07:13:03 51°14.554 2°50.623 9.9 5 15.7 101820 89
2004-06-11 07:13:09 51°14.553 2°50.618 10.6 7 15.7 101820 89
2004-06-11 07:13:13 51°14.552 2°50.614 11 9 15.7 101820 89
2004-06-11 07:13:19 51°14.551 2°50.609 11.3 9 15.7 101820 89
2004-06-11 07:13:23 51°14.55 2°50.606 10.3 7 15.7 101820 89
2004-06-11 07:13:30 51°14.549 2°50.599 10.3 14 15.7 101820 89
2004-06-11 07:13:34 51°14.548 2°50.596 11 7 15.7 101810 89
2004-06-11 07:13:39 51°14.548 2°50.592 10.2 6 15.7 101810 89
2004-06-11 07:13:45 51°14.547 2°50.586 10.9 5 15.7 101810 88
2004-06-11 07:13:49 51°14.546 2°50.583 12.1 7 15.7 101810 88
2004-06-11 07:13:54 51°14.545 2°50.579 11.1 6 15.7 101820 88
2004-06-11 07:13:59 51°14.544 2°50.574 10.9 8 15.7 101810 89
2004-06-11 07:14:03 51°14.543 2°50.571 11 7 15.7 101810 89
2004-06-11 07:14:09 51°14.542 2°50.566 10 5 15.7 101820 89
2004-06-11 07:14:14 51°14.541 2°50.561 10.8 2 15.7 101820 89
2004-06-11 07:14:19 51°14.54 2°50.557 10.3 3 15.7 101810 88
2004-06-11 07:14:23 51°14.54 2°50.553 11.6 8 15.7 101810 88
2004-06-11 07:14:29 51°14.539 2°50.548 11.2 9 15.7 101810 88
2004-06-11 07:14:34 51°14.538 2°50.544 10.9 6 15.6 101810 88
2004-06-11 07:14:39 51°14.537 2°50.54 10.5 1 15.6 101810 88
2004-06-11 07:14:43 51°14.536 2°50.536 10.4 5 15.6 101810 88
2004-06-11 07:14:49 51°14.535 2°50.531 11 7 15.6 101810 88
2004-06-11 07:14:54 51°14.534 2°50.527 10.7 359 15.6 101810 88
2004-06-11 07:14:59 51°14.533 2°50.523 10.4 1 15.7 101810 88
2004-06-11 07:15:03 51°14.532 2°50.519 11.6 5 15.7 101810 88
2004-06-11 07:15:09 51°14.531 2°50.514 12 6 15.7 101820 89
2004-06-11 07:15:13 51°14.53 2°50.511 11.9 6 15.7 101820 89
2004-06-11 07:15:19 51°14.529 2°50.506 11.5 7 15.7 101820 89
2004-06-11 07:15:23 51°14.528 2°50.502 11.4 9 15.7 101820 89
2004-06-11 07:15:29 51°14.526 2°50.497 10.4 8 15.7 101820 89
2004-06-11 07:15:34 51°14.525 2°50.493 11.1 8 15.7 101810 88
2004-06-11 07:15:38 51°14.524 2°50.49 10.8 6 15.6 101810 87
2004-06-11 07:15:43 51°14.523 2°50.485 11.6 7 15.6 101810 87
2004-06-11 07:15:49 51°14.522 2°50.48 11.8 8 15.6 101810 87
2004-06-11 07:15:54 51°14.521 2°50.475 10.9 4 15.6 101810 87
2004-06-11 07:15:59 51°14.52 2°50.471 11.6 4 15.6 101810 87
2004-06-11 07:16:03 51°14.519 2°50.467 11.7 9 15.6 101810 87
2004-06-11 07:16:10 51°14.517 2°50.461 11.3 9 15.6 101810 87
2004-06-11 07:16:13 51°14.517 2°50.459 10.7 10 15.6 101810 87
2004-06-11 07:16:18 51°14.516 2°50.454 10.3 9 15.6 101810 87
2004-06-11 07:16:23 51°14.514 2°50.45 10.5 5 15.6 101810 87
2004-06-11 07:16:29 51°14.513 2°50.445 11.1 8 15.6 101810 87
2004-06-11 07:16:34 51°14.511 2°50.441 11.3 6 15.6 101810 87
2004-06-11 07:16:39 51°14.51 2°50.436 10.3 9 15.6 101810 87
2004-06-11 07:16:43 51°14.509 2°50.432 10.3 14 15.6 101810 87
2004-06-11 07:16:49 51°14.507 2°50.427 10.3 11 15.6 101810 88
2004-06-11 07:16:54 51°14.506 2°50.422 11 7 15.6 101810 88
2004-06-11 07:16:59 51°14.505 2°50.418 10.2 9 15.6 101810 88
2004-06-11 07:17:03 51°14.503 2°50.414 11.6 11 15.6 101810 88
2004-06-11 07:17:09 51°14.502 2°50.409 10.5 12 15.6 101810 88
2004-06-11 07:17:13 51°14.5 2°50.406 10.9 11 15.6 101810 88
2004-06-11 07:17:19 51°14.499 2°50.4 10.8 13 15.7 101810 88
2004-06-11 07:17:23 51°14.497 2°50.397 11.4 12 15.7 101810 88
2004-06-11 07:17:30 51°14.495 2°50.391 11.7 9 15.7 101810 88
2004-06-11 07:17:34 51°14.494 2°50.387 11.4 10 15.7 101810 88
2004-06-11 07:17:39 51°14.493 2°50.383 11.9 8 15.7 101810 88
2004-06-11 07:17:43 51°14.491 2°50.379 10.8 11 15.7 101810 88
2004-06-11 07:17:49 51°14.49 2°50.374 11 13 15.7 101810 88
2004-06-11 07:17:54 51°14.488 2°50.37 11.9 12 15.6 101810 87
2004-06-11 07:17:59 51°14.487 2°50.366 11.9 7 15.6 101810 87
2004-06-11 07:18:05 51°14.485 2°50.361 11.4 9 15.6 101810 87
2004-06-11 07:18:09 51°14.484 2°50.357 11.7 10 15.6 101810 87
2004-06-11 07:18:14 51°14.482 2°50.353 12.1 9 15.6 101810 87
2004-06-11 07:18:19 51°14.481 2°50.349 11.6 11 15.6 101810 87
2004-06-11 07:18:23 51°14.48 2°50.346 11.2 9 15.6 101810 87
2004-06-11 07:18:29 51°14.478 2°50.341 11.1 10 15.6 101810 87
2004-06-11 07:18:34 51°14.477 2°50.337 11 10 15.6 101810 87
2004-06-11 07:18:38 51°14.475 2°50.334 11.4 11 15.6 101810 87
2004-06-11 07:18:43 51°14.474 2°50.33 11.9 9 15.6 101810 87
2004-06-11 07:18:49 51°14.472 2°50.325 11.5 10 15.6 101810 87
2004-06-11 07:18:54 51°14.471 2°50.321 10.5 12 15.6 101820 87
2004-06-11 07:18:59 51°14.47 2°50.317 11.4 10 15.6 101820 87
2004-06-11 07:19:05 51°14.468 2°50.312 11.1 14 15.6 101820 87
2004-06-11 07:19:09 51°14.467 2°50.309 10.1 8 15.6 101810 87
2004-06-11 07:19:14 51°14.466 2°50.304 10.3 13 15.6 101810 87
2004-06-11 07:19:19 51°14.464 2°50.3 11 13 15.6 101810 87
2004-06-11 07:19:23 51°14.463 2°50.297 9.8 8 15.6 101810 87
2004-06-11 07:19:28 51°14.462 2°50.292 11 14 15.6 101810 87
2004-06-11 07:19:34 51°14.46 2°50.287 11.9 8 15.6 101810 87
2004-06-11 07:19:39 51°14.458 2°50.283 11.9 13 15.7 101810 87
2004-06-11 07:19:45 51°14.457 2°50.278 10.9 12 15.7 101810 87
2004-06-11 07:19:50 51°14.455 2°50.274 11.7 12 15.7 101810 87
2004-06-11 07:19:54 51°14.454 2°50.271 11.2 12 15.6 101820 87
2004-06-11 07:19:59 51°14.452 2°50.267 11.4 11 15.6 101820 87
2004-06-11 07:20:03 51°14.451 2°50.263 11.5 13 15.7 101810 87
2004-06-11 07:20:09 51°14.449 2°50.258 12 11 15.6 101810 87
2004-06-11 07:20:14 51°14.448 2°50.254 11.2 11 15.6 101810 87
2004-06-11 07:20:19 51°14.446 2°50.25 11.2 8 15.6 101810 87
2004-06-11 07:20:23 51°14.445 2°50.246 12.1 9 15.6 101810 87
2004-06-11 07:20:30 51°14.443 2°50.24 11.8 9 15.6 101810 87
2004-06-11 07:20:34 51°14.442 2°50.236 11.7 7 15.7 101810 87
2004-06-11 07:20:39 51°14.44 2°50.232 11.7 5 15.6 101810 87
2004-06-11 07:20:46 51°14.438 2°50.226 11.8 7 15.6 101810 87
2004-06-11 07:20:50 51°14.437 2°50.222 11.6 10 15.6 101810 87
2004-06-11 07:20:54 51°14.436 2°50.219 12.9 9 15.6 101820 87
2004-06-11 07:20:59 51°14.434 2°50.215 12 14 15.6 101820 87
2004-06-11 07:21:03 51°14.433 2°50.211 12.3 10 15.6 101820 86
2004-06-11 07:21:09 51°14.431 2°50.207 12.1 9 15.6 101820 86
2004-06-11 07:21:14 51°14.43 2°50.202 11.8 9 15.6 101810 86
2004-06-11 07:21:19 51°14.428 2°50.198 12.9 8 15.6 101820 87
2004-06-11 07:21:23 51°14.427 2°50.195 11.9 9 15.6 101820 87
2004-06-11 07:21:29 51°14.425 2°50.19 11.9 9 15.6 101820 87
2004-06-11 07:21:34 51°14.424 2°50.185 11.1 9 15.6 101820 87
2004-06-11 07:21:38 51°14.423 2°50.182 12 11 15.6 101810 86
2004-06-11 07:21:43 51°14.421 2°50.178 11.5 14 15.6 101810 86
2004-06-11 07:21:50 51°14.419 2°50.172 11.2 9 15.6 101810 86
2004-06-11 07:21:54 51°14.418 2°50.168 10.2 13 15.6 101820 86
2004-06-11 07:21:59 51°14.416 2°50.164 11.4 18 15.6 101820 86
2004-06-11 07:22:03 51°14.415 2°50.161 11.7 15 15.6 101820 86
2004-06-11 07:22:09 51°14.413 2°50.156 11.5 10 15.6 101820 86
2004-06-11 07:22:14 51°14.412 2°50.152 11.4 16 15.6 101820 86
2004-06-11 07:22:19 51°14.41 2°50.148 10.7 15 15.7 101820 87
2004-06-11 07:22:23 51°14.408 2°50.144 10.8 14 15.7 101820 87
2004-06-11 07:22:29 51°14.406 2°50.139 11.4 12 15.7 101820 87
2004-06-11 07:22:34 51°14.405 2°50.135 10.3 5 15.7 101820 87
2004-06-11 07:22:39 51°14.403 2°50.131 10.7 11 15.7 101820 87
2004-06-11 07:22:43 51°14.402 2°50.128 11 13 15.7 101820 87
2004-06-11 07:22:50 51°14.399 2°50.122 10.8 14 15.7 101820 87
2004-06-11 07:22:54 51°14.398 2°50.119 11.1 8 15.7 101820 86
2004-06-11 07:22:59 51°14.396 2°50.115 11 12 15.7 101820 86
2004-06-11 07:23:03 51°14.395 2°50.111 11.4 10 15.7 101830 86
2004-06-11 07:23:10 51°14.393 2°50.105 10.9 11 15.7 101820 86
2004-06-11 07:23:14 51°14.391 2°50.102 10.4 11 15.7 101820 86
2004-06-11 07:23:18 51°14.39 2°50.098 11.2 11 15.7 101820 86
2004-06-11 07:23:26 51°14.388 2°50.091 10.7 7 15.7 101820 86
2004-06-11 07:23:30 51°14.387 2°50.088 10 12 15.7 101820 86
2004-06-11 07:23:34 51°14.386 2°50.084 9.5 8 15.7 101810 86
2004-06-11 07:23:39 51°14.384 2°50.08 10.5 11 15.7 101820 86
2004-06-11 07:23:43 51°14.383 2°50.076 9.9 9 15.7 101820 86
2004-06-11 07:23:50 51°14.382 2°50.07 11.2 10 15.7 101820 87
2004-06-11 07:23:54 51°14.381 2°50.066 11.1 10 15.7 101820 87
2004-06-11 07:23:59 51°14.379 2°50.061 11.2 13 15.7 101820 87
2004-06-11 07:24:03 51°14.378 2°50.058 11.4 10 15.7 101820 87
2004-06-11 07:24:09 51°14.377 2°50.052 10.9 11 15.7 101820 87
2004-06-11 07:24:14 51°14.375 2°50.048 9.6 12 15.7 101820 87
2004-06-11 07:24:19 51°14.374 2°50.043 10.6 11 15.7 101820 87
2004-06-11 07:24:26 51°14.372 2°50.037 9 12 15.7 101820 87
2004-06-11 07:24:30 51°14.371 2°50.033 9.9 11 15.7 101820 87
2004-06-11 07:24:34 51°14.37 2°50.03 11.7 14 15.7 101820 87
2004-06-11 07:24:39 51°14.368 2°50.025 10.9 11 15.7 101820 87
2004-06-11 07:24:43 51°14.367 2°50.022 11 12 15.8 101820 87
2004-06-11 07:24:50 51°14.365 2°50.016 11.3 12 15.8 101820 87
2004-06-11 07:24:54 51°14.363 2°50.013 11.3 11 15.8 101820 87
2004-06-11 07:24:59 51°14.362 2°50.009 10.2 10 15.8 101810 87
2004-06-11 07:25:03 51°14.361 2°50.005 11 11 15.8 101810 87
2004-06-11 07:25:10 51°14.358 2°50 10.5 11 15.8 101810 87
2004-06-11 07:25:14 51°14.357 2°49.996 10.2 10 15.8 101820 87
2004-06-11 07:25:18 51°14.356 2°49.993 10.3 12 15.8 101810 87
2004-06-11 07:25:23 51°14.354 2°49.989 10.9 13 15.8 101810 87
2004-06-11 07:25:27 51°14.353 2°49.985 10.6 13 15.7 101820 86
2004-06-11 07:25:34 51°14.351 2°49.98 9.4 5 15.7 101820 86
2004-06-11 07:25:39 51°14.349 2°49.975 10 9 15.7 101820 86
2004-06-11 07:25:44 51°14.348 2°49.971 9.9 10 15.7 101820 86
2004-06-11 07:25:49 51°14.347 2°49.967 9.7 11 15.7 101820 86
2004-06-11 07:25:54 51°14.345 2°49.963 9.6 14 15.7 101820 86
2004-06-11 07:25:59 51°14.344 2°49.959 10.8 7 15.7 101820 86
2004-06-11 07:26:03 51°14.342 2°49.955 12.1 9 15.7 101830 86
2004-06-11 07:26:10 51°14.34 2°49.949 11.3 10 15.7 101830 86
2004-06-11 07:26:14 51°14.339 2°49.946 11.7 11 15.8 101820 87
2004-06-11 07:26:19 51°14.338 2°49.942 10.8 7 15.8 101820 87
2004-06-11 07:26:23 51°14.336 2°49.938 10.7 10 15.8 101820 87
2004-06-11 07:26:29 51°14.334 2°49.934 10.9 8 15.8 101820 87
2004-06-11 07:26:34 51°14.333 2°49.929 11.6 9 15.8 101810 87
2004-06-11 07:26:39 51°14.331 2°49.925 11.4 9 15.7 101820 86
2004-06-11 07:26:43 51°14.33 2°49.922 11.4 8 15.7 101820 86
2004-06-11 07:26:50 51°14.328 2°49.916 11.3 8 15.7 101820 86
2004-06-11 07:26:54 51°14.327 2°49.913 12 9 15.8 101820 87
2004-06-11 07:26:59 51°14.325 2°49.909 11.8 10 15.8 101820 87
2004-06-11 07:27:03 51°14.324 2°49.906 11.4 12 15.7 101810 86
2004-06-11 07:27:10 51°14.322 2°49.901 11 10 15.7 101810 86
2004-06-11 07:27:14 51°14.321 2°49.898 11.2 8 15.7 101820 86
2004-06-11 07:27:19 51°14.319 2°49.894 11.3 8 15.7 101810 86
2004-06-11 07:27:23 51°14.318 2°49.891 11.9 10 15.7 101810 86
2004-06-11 07:27:30 51°14.316 2°49.885 11.5 11 15.7 101810 86
2004-06-11 07:27:34 51°14.314 2°49.882 10.8 10 15.7 101820 86
2004-06-11 07:27:39 51°14.313 2°49.878 10.6 7 15.7 101810 86
2004-06-11 07:27:43 51°14.311 2°49.875 10.2 8 15.7 101810 86
2004-06-11 07:27:49 51°14.309 2°49.871 10.5 13 15.7 101810 86
2004-06-11 07:27:54 51°14.308 2°49.867 9.7 8 15.7 101810 86
2004-06-11 07:27:59 51°14.306 2°49.863 10.7 12 15.7 101810 86
2004-06-11 07:28:03 51°14.305 2°49.86 11.4 11 15.7 101820 86
2004-06-11 07:28:09 51°14.303 2°49.855 11 12 15.7 101820 86
2004-06-11 07:28:14 51°14.301 2°49.851 10.3 12 15.6 101820 86
2004-06-11 07:28:18 51°14.3 2°49.848 10.1 5 15.7 101820 86
2004-06-11 07:28:26 51°14.298 2°49.842 9.7 10 15.7 101820 86
2004-06-11 07:28:29 51°14.297 2°49.84 10 11 15.7 101820 86
2004-06-11 07:28:33 51°14.295 2°49.836 10.8 11 15.6 101820 86
2004-06-11 07:28:39 51°14.294 2°49.832 11.1 8 15.6 101820 86
2004-06-11 07:28:43 51°14.292 2°49.829 11.3 7 15.7 101810 86
2004-06-11 07:28:49 51°14.291 2°49.824 11.1 16 15.7 101810 86
2004-06-11 07:28:54 51°14.289 2°49.82 11 10 15.7 101820 86
2004-06-11 07:28:59 51°14.288 2°49.815 10.3 16 15.7 101810 86
2004-06-11 07:29:04 51°14.286 2°49.811 11 13 15.7 101810 86
2004-06-11 07:29:08 51°14.285 2°49.808 10.5 16 15.7 101810 86
2004-06-11 07:29:14 51°14.283 2°49.803 10.4 12 15.7 101820 86
2004-06-11 07:29:19 51°14.281 2°49.799 10.6 18 15.7 101820 86
2004-06-11 07:29:23 51°14.28 2°49.796 11.9 18 15.7 101820 86
2004-06-11 07:29:29 51°14.278 2°49.791 11 13 15.7 101820 86
2004-06-11 07:29:34 51°14.277 2°49.787 10.6 16 15.7 101820 86
2004-06-11 07:29:39 51°14.275 2°49.783 10.9 15 15.7 101830 86
2004-06-11 07:29:43 51°14.274 2°49.779 10.3 14 15.7 101830 86
2004-06-11 07:29:49 51°14.271 2°49.775 11 11 15.7 101830 86
2004-06-11 07:29:54 51°14.27 2°49.771 10.9 10 15.7 101810 86
2004-06-11 07:29:59 51°14.268 2°49.767 11.5 13 15.7 101820 86
2004-06-11 07:30:03 51°14.267 2°49.764 10.9 12 15.7 101820 86
2004-06-11 07:30:09 51°14.265 2°49.76 10.2 11 15.7 101820 86
2004-06-11 07:30:14 51°14.263 2°49.756 10.6 11 15.7 101820 86
2004-06-11 07:30:19 51°14.261 2°49.753 10.9 10 15.7 101820 86
2004-06-11 07:30:23 51°14.26 2°49.75 10.7 13 15.7 101810 86
2004-06-11 07:30:29 51°14.258 2°49.746 11.1 12 15.7 101810 86
2004-06-11 07:30:33 51°14.256 2°49.743 10.6 10 15.7 101820 86
2004-06-11 07:30:38 51°14.255 2°49.74 10.9 9 15.7 101820 86
2004-06-11 07:30:43 51°14.253 2°49.736 10.7 10 15.7 101820 86
2004-06-11 07:30:50 51°14.251 2°49.731 10.6 11 15.7 101820 86
2004-06-11 07:30:54 51°14.249 2°49.728 11.6 10 15.7 101820 86
2004-06-11 07:30:59 51°14.248 2°49.725 11 7 15.7 101820 86
2004-06-11 07:31:03 51°14.247 2°49.722 10.1 7 15.8 101820 86
2004-06-11 07:31:10 51°14.244 2°49.717 11.5 7 15.7 101820 86
2004-06-11 07:31:14 51°14.243 2°49.714 11.5 6 15.7 101820 86
2004-06-11 07:31:18 51°14.242 2°49.71 11.6 5 15.7 101820 86
2004-06-11 07:31:24 51°14.24 2°49.706 10.9 10 15.7 101820 86
2004-06-11 07:31:29 51°14.239 2°49.702 10 10 15.7 101820 86
2004-06-11 07:31:34 51°14.238 2°49.698 10.5 14 15.7 101830 86
2004-06-11 07:31:39 51°14.236 2°49.694 11.2 10 15.7 101820 86
2004-06-11 07:31:46 51°14.235 2°49.688 11.1 8 15.7 101820 86
2004-06-11 07:31:49 51°14.234 2°49.686 11.4 13 15.7 101820 86
2004-06-11 07:31:53 51°14.233 2°49.683 11.5 11 15.7 101820 86
2004-06-11 07:31:59 51°14.231 2°49.678 11.3 10 15.7 101820 86
2004-06-11 07:32:03 51°14.23 2°49.674 10.8 11 15.7 101820 86
2004-06-11 07:32:09 51°14.229 2°49.669 10.9 11 15.7 101830 86
2004-06-11 07:32:14 51°14.228 2°49.665 11.3 8 15.7 101830 86
2004-06-11 07:32:19 51°14.227 2°49.661 10.9 8 15.7 101820 86
2004-06-11 07:32:22 51°14.226 2°49.658 10.2 7 15.7 101820 86
2004-06-11 07:32:29 51°14.225 2°49.652 9.6 6 15.7 101820 86
2004-06-11 07:32:34 51°14.223 2°49.648 10.5 10 15.7 101820 86
2004-06-11 07:32:38 51°14.223 2°49.645 10.2 9 15.7 101820 86
2004-06-11 07:32:43 51°14.222 2°49.64 10.4 7 15.7 101820 86
2004-06-11 07:32:49 51°14.221 2°49.635 10.3 10 15.7 101820 86
2004-06-11 07:32:55 51°14.22 2°49.63 9.8 9 15.7 101820 86
2004-06-11 07:32:59 51°14.219 2°49.626 10.4 12 15.7 101820 86
2004-06-11 07:33:05 51°14.218 2°49.621 9.8 12 15.7 101820 86
2004-06-11 07:33:09 51°14.217 2°49.617 10.5 11 15.7 101820 86
2004-06-11 07:33:15 51°14.216 2°49.612 10.8 9 15.7 101820 86
2004-06-11 07:33:19 51°14.215 2°49.608 9.6 10 15.7 101820 86
2004-06-11 07:33:23 51°14.214 2°49.604 9.5 9 15.7 101820 86
2004-06-11 07:33:29 51°14.213 2°49.599 9.8 9 15.7 101820 86
2004-06-11 07:33:34 51°14.212 2°49.595 9.1 12 15.7 101820 87
2004-06-11 07:33:39 51°14.211 2°49.59 9.9 8 15.7 101820 87
2004-06-11 07:33:44 51°14.21 2°49.586 9.6 12 15.7 101820 87
2004-06-11 07:33:47 51°14.21 2°49.583 9.2 10 15.7 101820 87
2004-06-11 07:33:54 51°14.208 2°49.576 9.7 12 15.7 101820 86
2004-06-11 07:33:59 51°14.208 2°49.571 9.4 12 15.7 101820 86
2004-06-11 07:34:04 51°14.207 2°49.567 10.5 3 15.7 101820 86
2004-06-11 07:34:09 51°14.206 2°49.562 9 5 15.7 101820 86
2004-06-11 07:34:14 51°14.205 2°49.557 9.2 4 15.7 101820 86
2004-06-11 07:34:19 51°14.204 2°49.553 10.1 9 15.7 101820 86
2004-06-11 07:34:23 51°14.204 2°49.549 9.9 6 15.7 101820 86
2004-06-11 07:34:29 51°14.203 2°49.543 9.1 2 15.7 101820 86
2004-06-11 07:34:34 51°14.202 2°49.538 9.9 1 15.8 101820 87
2004-06-11 07:34:39 51°14.202 2°49.533 9.2 358 15.8 101820 87
2004-06-11 07:34:45 51°14.202 2°49.527 8.9 356 15.8 101820 87
2004-06-11 07:34:49 51°14.201 2°49.524 9.7 358 15.8 101820 87
2004-06-11 07:34:53 51°14.201 2°49.52 9.7 352 15.8 101820 87
2004-06-11 07:34:59 51°14.201 2°49.514 9.3 353 15.8 101820 87
2004-06-11 07:35:03 51°14.201 2°49.51 10.5 358 15.8 101820 87
2004-06-11 07:35:10 51°14.201 2°49.503 9.1 356 15.8 101820 87
2004-06-11 07:35:14 51°14.202 2°49.499 10.1 354 15.8 101820 87
2004-06-11 07:35:19 51°14.202 2°49.494 9.4 350 15.8 101820 87
2004-06-11 07:35:23 51°14.202 2°49.49 9 353 15.8 101820 87
2004-06-11 07:35:26 51°14.203 2°49.487 8.6 350 15.8 101820 87
2004-06-11 07:35:34 51°14.204 2°49.479 9.3 346 15.8 101820 87
2004-06-11 07:35:39 51°14.205 2°49.473 8.7 344 15.8 101820 87
2004-06-11 07:35:42 51°14.205 2°49.471 9.4 350 15.8 101820 87
2004-06-11 07:35:49 51°14.207 2°49.465 9.3 342 15.8 101810 87
2004-06-11 07:35:54 51°14.208 2°49.461 8.6 344 15.8 101810 87
2004-06-11 07:35:59 51°14.209 2°49.457 9.2 341 15.8 101820 87
2004-06-11 07:36:03 51°14.21 2°49.454 9.9 340 15.8 101820 87
2004-06-11 07:36:09 51°14.211 2°49.45 9.7 338 15.8 101820 87
2004-06-11 07:36:13 51°14.213 2°49.448 9.7 339 15.8 101810 87
2004-06-11 07:36:18 51°14.215 2°49.445 9.3 333 15.8 101810 87
2004-06-11 07:36:23 51°14.216 2°49.443 8.8 330 15.8 101810 87
2004-06-11 07:36:30 51°14.219 2°49.44 8.7 330 15.8 101810 87
2004-06-11 07:36:34 51°14.22 2°49.438 9 332 15.9 101810 87
2004-06-11 07:36:39 51°14.222 2°49.437 9.8 331 15.9 101810 87
2004-06-11 07:36:43 51°14.224 2°49.435 9.1 327 15.8 101810 87
2004-06-11 07:36:50 51°14.227 2°49.433 9.3 325 15.8 101810 87
2004-06-11 07:36:54 51°14.228 2°49.432 9.1 322 15.8 101810 86
2004-06-11 07:36:59 51°14.23 2°49.431 9.1 320 15.8 101810 86
2004-06-11 07:37:02 51°14.232 2°49.431 9 317 15.8 101810 86
2004-06-11 07:37:10 51°14.235 2°49.429 9 318 15.8 101810 86
2004-06-11 07:37:14 51°14.237 2°49.429 9.1 322 15.8 101810 86
2004-06-11 07:37:20 51°14.239 2°49.428 9.8 319 15.8 101810 86
2004-06-11 07:37:23 51°14.24 2°49.428 9 328 15.8 101810 86
2004-06-11 07:37:30 51°14.243 2°49.427 8.2 319 15.8 101810 86
2004-06-11 07:37:35 51°14.245 2°49.427 9.5 323 15.8 101810 87
2004-06-11 07:37:40 51°14.247 2°49.427 10 324 15.8 101810 87
2004-06-11 07:37:44 51°14.249 2°49.426 8.8 319 15.8 101810 87
2004-06-11 07:37:49 51°14.252 2°49.425 10 317 15.9 101810 87
2004-06-11 07:37:55 51°14.255 2°49.423 10 312 15.9 101810 87
2004-06-11 07:37:59 51°14.258 2°49.421 9.8 308 15.9 101810 87
2004-06-11 07:38:03 51°14.261 2°49.418 10 300 15.8 101810 87
2004-06-11 07:38:10 51°14.268 2°49.415 10.6 292 15.8 101810 86
2004-06-11 07:38:14 51°14.273 2°49.413 10.6 281 15.8 101810 86
2004-06-11 07:38:19 51°14.28 2°49.413 10.4 273 15.8 101800 86
2004-06-11 07:38:26 51°14.29 2°49.414 9.4 267 15.8 101800 86
2004-06-11 07:38:29 51°14.295 2°49.415 7.6 265 15.8 101800 86
2004-06-11 07:38:34 51°14.303 2°49.419 5.6 245 15.8 101800 86
2004-06-11 07:38:39 51°14.311 2°49.425 7.5 232 15.8 101810 86
2004-06-11 07:38:42 51°14.315 2°49.43 6.8 229 15.8 101810 86
2004-06-11 07:38:49 51°14.325 2°49.443 6.6 214 15.8 101810 86
2004-06-11 07:38:54 51°14.332 2°49.454 3.8 199 15.8 101810 86
2004-06-11 07:38:58 51°14.336 2°49.463 3.8 218 15.9 101830 87
2004-06-11 07:39:03 51°14.34 2°49.476 4.6 200 15.9 101830 87
2004-06-11 07:39:09 51°14.345 2°49.49 5 181 15.8 101830 86
2004-06-11 07:39:14 51°14.348 2°49.501 4.4 189 15.8 101830 86
2004-06-11 07:39:18 51°14.351 2°49.51 3.2 198 15.8 101830 86
2004-06-11 07:39:23 51°14.354 2°49.521 3.8 193 15.8 101830 86
2004-06-11 07:39:29 51°14.357 2°49.534 4.8 179 15.9 101830 86
2004-06-11 07:39:34 51°14.36 2°49.545 4.2 183 15.9 101830 86
2004-06-11 07:39:39 51°14.362 2°49.556 4.7 175 15.9 101830 86
2004-06-11 07:39:43 51°14.364 2°49.564 4 181 15.9 101830 87
2004-06-11 07:39:49 51°14.366 2°49.576 5.1 182 15.9 101840 86
2004-06-11 07:39:54 51°14.368 2°49.586 4.7 175 15.9 101840 86
2004-06-11 07:39:59 51°14.37 2°49.595 6.4 170 15.9 101840 86
2004-06-11 07:40:05 51°14.372 2°49.607 6.6 171 15.9 101840 86
2004-06-11 07:40:09 51°14.373 2°49.614 6.9 166 15.9 101840 85
2004-06-11 07:40:14 51°14.375 2°49.624 6.9 166 15.9 101840 85
2004-06-11 07:40:19 51°14.377 2°49.633 6.7 173 15.9 101840 85
2004-06-11 07:40:22 51°14.377 2°49.638 6.6 157 15.9 101840 85
2004-06-11 07:40:29 51°14.38 2°49.651 7.1 160 15.9 101840 85
2004-06-11 07:40:34 51°14.381 2°49.66 6.4 162 15.9 101840 85
2004-06-11 07:40:39 51°14.383 2°49.668 7 162 15.9 101840 85
2004-06-11 07:40:45 51°14.385 2°49.678 7.5 163 15.9 101840 85
2004-06-11 07:40:50 51°14.386 2°49.687 7.5 161 15.9 101840 85
2004-06-11 07:40:54 51°14.387 2°49.693 7 163 15.9 101840 86
2004-06-11 07:40:59 51°14.389 2°49.701 7.6 164 15.9 101840 86
2004-06-11 07:41:05 51°14.39 2°49.711 6.8 161 15.9 101840 86
2004-06-11 07:41:09 51°14.391 2°49.717 7.1 161 15.9 101840 86
2004-06-11 07:41:14 51°14.393 2°49.726 7.1 162 15.9 101840 85
2004-06-11 07:41:19 51°14.394 2°49.734 7.5 159 15.9 101840 86
2004-06-11 07:41:23 51°14.395 2°49.74 7.5 162 15.9 101840 86
2004-06-11 07:41:29 51°14.397 2°49.749 7.9 159 15.9 101840 86
2004-06-11 07:41:34 51°14.397 2°49.757 7.3 163 15.9 101840 86
2004-06-11 07:41:38 51°14.398 2°49.764 7.6 164 15.9 101850 86
2004-06-11 07:41:43 51°14.399 2°49.771 7.6 163 15.9 101850 86
2004-06-11 07:41:49 51°14.4 2°49.781 7.7 161 15.8 101840 86
2004-06-11 07:41:54 51°14.401 2°49.788 8.5 158 15.8 101840 86
2004-06-11 07:41:59 51°14.402 2°49.796 8.6 159 15.8 101840 85
2004-06-11 07:42:03 51°14.403 2°49.802 8.2 164 15.8 101840 85
2004-06-11 07:42:09 51°14.404 2°49.811 7.7 164 15.8 101850 86
2004-06-11 07:42:14 51°14.405 2°49.819 7.8 166 15.8 101850 86
2004-06-11 07:42:19 51°14.406 2°49.826 7.3 161 15.8 101840 85
2004-06-11 07:42:23 51°14.407 2°49.832 7.1 164 15.8 101840 85
2004-06-11 07:42:29 51°14.409 2°49.841 6.5 161 15.7 101840 85
2004-06-11 07:42:34 51°14.41 2°49.848 7.1 167 15.7 101840 85
2004-06-11 07:42:39 51°14.411 2°49.856 7.9 165 15.7 101840 85
2004-06-11 07:42:43 51°14.412 2°49.861 7.5 165 15.7 101840 85
2004-06-11 07:42:49 51°14.413 2°49.87 6.7 168 15.7 101840 85
2004-06-11 07:42:54 51°14.415 2°49.877 7.6 169 15.7 101840 85
2004-06-11 07:42:59 51°14.416 2°49.884 5.7 170 15.7 101840 85
2004-06-11 07:43:03 51°14.417 2°49.89 7.2 168 15.7 101840 85
2004-06-11 07:43:09 51°14.419 2°49.898 6.3 178 15.7 101840 85
2004-06-11 07:43:14 51°14.42 2°49.905 7.1 179 15.7 101850 85
2004-06-11 07:43:19 51°14.422 2°49.912 6.4 176 15.7 101840 85
2004-06-11 07:43:23 51°14.423 2°49.917 6.6 171 15.7 101840 85
2004-06-11 07:43:29 51°14.425 2°49.926 6.7 184 15.7 101840 85
2004-06-11 07:43:34 51°14.427 2°49.932 4.7 182 15.7 101840 85
2004-06-11 07:43:39 51°14.429 2°49.939 4.5 187 15.7 101840 85
2004-06-11 07:43:43 51°14.43 2°49.944 4.8 195 15.7 101840 85
2004-06-11 07:43:49 51°14.432 2°49.952 4.2 189 15.7 101840 85
2004-06-11 07:43:53 51°14.433 2°49.958 4.2 188 15.7 101840 85
2004-06-11 07:43:59 51°14.435 2°49.966 5 200 15.8 101840 85
2004-06-11 07:44:05 51°14.437 2°49.973 4.5 200 15.8 101840 85
2004-06-11 07:44:09 51°14.439 2°49.979 4.2 211 15.8 101830 86
2004-06-11 07:44:14 51°14.441 2°49.985 4.3 196 15.8 101830 86
2004-06-11 07:44:18 51°14.442 2°49.991 4.4 195 15.8 101840 86
2004-06-11 07:44:24 51°14.444 2°49.998 4.3 184 15.8 101840 86
2004-06-11 07:44:29 51°14.446 2°50.005 3.8 196 15.8 101840 86
2004-06-11 07:44:34 51°14.448 2°50.012 5 195 15.9 101840 86
2004-06-11 07:44:39 51°14.45 2°50.018 4.5 199 15.9 101840 86
2004-06-11 07:44:43 51°14.452 2°50.023 4.2 194 15.9 101840 86
2004-06-11 07:44:49 51°14.454 2°50.031 3.7 191 15.9 101840 86
2004-06-11 07:44:54 51°14.456 2°50.038 3.5 192 15.9 101840 86
2004-06-11 07:44:58 51°14.457 2°50.043 4.1 191 16 101840 86
2004-06-11 07:45:03 51°14.459 2°50.05 5.9 202 16 101840 86
2004-06-11 07:45:10 51°14.462 2°50.059 5.9 207 16 101840 86
2004-06-11 07:45:14 51°14.464 2°50.064 6.2 203 16.1 101830 86
2004-06-11 07:45:19 51°14.466 2°50.071 4.8 206 16.1 101840 85
2004-06-11 07:45:23 51°14.468 2°50.076 4.8 197 16.1 101840 85
2004-06-11 07:45:29 51°14.47 2°50.084 4.8 193 16.1 101840 85
2004-06-11 07:45:34 51°14.472 2°50.091 6.2 202 16.1 101830 85
2004-06-11 07:45:39 51°14.474 2°50.098 7 195 16.1 101830 85
2004-06-11 07:45:43 51°14.475 2°50.103 4.6 196 16.1 101830 85
2004-06-11 07:45:50 51°14.478 2°50.113 5.5 197 16.1 101830 85
2004-06-11 07:45:53 51°14.478 2°50.117 4.8 186 16.1 101830 85
2004-06-11 07:45:59 51°14.481 2°50.125 4.7 198 16.1 101840 84
2004-06-11 07:46:05 51°14.483 2°50.133 5.7 202 16.1 101840 84
2004-06-11 07:46:09 51°14.485 2°50.138 6.2 204 16.1 101840 84
2004-06-11 07:46:14 51°14.486 2°50.145 5.2 208 16 101840 84
2004-06-11 07:46:19 51°14.488 2°50.151 5.8 201 16 101840 84
2004-06-11 07:46:23 51°14.49 2°50.157 6.3 197 16 101840 84
2004-06-11 07:46:29 51°14.492 2°50.165 6 201 16 101840 83
2004-06-11 07:46:33 51°14.494 2°50.17 5.9 203 16 101840 83
2004-06-11 07:46:38 51°14.496 2°50.177 6.2 202 16 101840 83
2004-06-11 07:46:43 51°14.498 2°50.183 6.3 201 16.1 101830 83
2004-06-11 07:46:49 51°14.5 2°50.191 4.5 196 16.1 101830 83
2004-06-11 07:46:54 51°14.502 2°50.198 5.4 206 16 101840 84
2004-06-11 07:46:59 51°14.504 2°50.204 5.8 204 16 101840 84
2004-06-11 07:47:03 51°14.506 2°50.21 6 201 16 101840 84
2004-06-11 07:47:09 51°14.508 2°50.218 5.8 200 16 101840 84
2004-06-11 07:47:15 51°14.51 2°50.226 6 205 16 101840 84
2004-06-11 07:47:18 51°14.511 2°50.23 5.7 206 16 101840 84
2004-06-11 07:47:23 51°14.513 2°50.236 5.2 204 16 101840 84
2004-06-11 07:47:29 51°14.516 2°50.244 4.8 205 15.9 101830 83
2004-06-11 07:47:34 51°14.518 2°50.251 5.7 200 15.9 101830 83
2004-06-11 07:47:39 51°14.52 2°50.258 5.3 207 15.9 101840 84
2004-06-11 07:47:43 51°14.521 2°50.263 5.7 202 15.9 101840 84
2004-06-11 07:47:50 51°14.525 2°50.272 4.3 199 15.9 101840 84
2004-06-11 07:47:54 51°14.526 2°50.277 4.3 195 15.9 101840 84
2004-06-11 07:47:59 51°14.528 2°50.284 4.8 192 15.9 101840 84
2004-06-11 07:48:03 51°14.53 2°50.289 4.5 198 15.9 101840 84
2004-06-11 07:48:10 51°14.533 2°50.298 5.4 199 15.9 101840 84
2004-06-11 07:48:14 51°14.535 2°50.303 6.1   15.9 101830 84
2004-06-11 07:48:19 51°14.537 2°50.31 5.9 203 15.9 101830 84
2004-06-11 07:48:23 51°14.538 2°50.315 5.9 201 15.9 101830 84
2004-06-11 07:48:29 51°14.541 2°50.323 5.6 201 15.9 101830 84
2004-06-11 07:48:34 51°14.543 2°50.329 5.1 204 15.9 101830 84
2004-06-11 07:48:38 51°14.544 2°50.334 4.7 193 15.9 101830 83
2004-06-11 07:48:43 51°14.547 2°50.341 3.6 194 15.9 101830 83
2004-06-11 07:48:49 51°14.549 2°50.349 5.2 176 15.9 101830 83
2004-06-11 07:48:53 51°14.551 2°50.354 5 195 15.9 101840 83
2004-06-11 07:48:59 51°14.554 2°50.362 5.2 201 15.9 101830 83
2004-06-11 07:49:03 51°14.555 2°50.367 4.8 205 15.9 101830 83
2004-06-11 07:49:09 51°14.558 2°50.375 4.6 197 15.9 101830 84
2004-06-11 07:49:13 51°14.56 2°50.38 5.7 194 15.9 101830 84
2004-06-11 07:49:19 51°14.562 2°50.388 4.6 192 15.9 101830 84
2004-06-11 07:49:23 51°14.564 2°50.393 5.7 197 15.9 101830 84
2004-06-11 07:49:29 51°14.566 2°50.401 5.9 204 15.9 101830 84
2004-06-11 07:49:34 51°14.568 2°50.408 4.7 175 16 101830 84
2004-06-11 07:49:39 51°14.57 2°50.414 5.5 196 15.9 101830 84
2004-06-11 07:49:43 51°14.571 2°50.42 4.3 200 15.9 101830 84
2004-06-11 07:49:49 51°14.574 2°50.427 4 186 16 101830 84
2004-06-11 07:49:53 51°14.575 2°50.433 4.7 183 16 101830 84
2004-06-11 07:49:59 51°14.577 2°50.441 4.8 184 16 101830 84
2004-06-11 07:50:03 51°14.579 2°50.446 3.9 192 16 101830 84
2004-06-11 07:50:10 51°14.581 2°50.455 4.8 182 16 101830 84
2004-06-11 07:50:14 51°14.583 2°50.46 4.4 183 16 101840 84
2004-06-11 07:50:19 51°14.585 2°50.467 5 187 16 101840 84
2004-06-11 07:50:23 51°14.586 2°50.472 4.1 185 16 101840 84
2004-06-11 07:50:29 51°14.588 2°50.481 5.2 184 16.1 101840 84
2004-06-11 07:50:34 51°14.59 2°50.487 4 192 16.1 101840 84
2004-06-11 07:50:39 51°14.592 2°50.494 4.5 190 16.1 101840 84
2004-06-11 07:50:43 51°14.593 2°50.499 4.4 187 16.1 101840 84
2004-06-11 07:50:49 51°14.595 2°50.508 4.6 193 16.1 101840 84
2004-06-11 07:50:54 51°14.597 2°50.514 4.4 188 16.1 101840 83
2004-06-11 07:50:59 51°14.599 2°50.521 4.9 187 16.1 101840 83
2004-06-11 07:51:03 51°14.6 2°50.526 4.4 197 16.1 101840 83
2004-06-11 07:51:09 51°14.602 2°50.535 5 197 16.1 101840 83
2004-06-11 07:51:14 51°14.605 2°50.541 4.5 183 16.1 101840 83
2004-06-11 07:51:18 51°14.606 2°50.547 5 192 16.1 101840 83
2004-06-11 07:51:23 51°14.608 2°50.553 4.3 188 16.2 101830 84
2004-06-11 07:51:29 51°14.61 2°50.562 3.4 197 16.2 101840 84
2004-06-11 07:51:34 51°14.612 2°50.568 4.9 181 16.2 101840 84
2004-06-11 07:51:39 51°14.614 2°50.575 5 195 16.3 101840 84
2004-06-11 07:51:45 51°14.616 2°50.583 5.2 178 16.3 101840 84
2004-06-11 07:51:49 51°14.617 2°50.589 5 179 16.3 101840 84
2004-06-11 07:51:54 51°14.619 2°50.596 4.8 182 16.3 101840 84
2004-06-11 07:51:59 51°14.621 2°50.603 5.1 180 16.3 101840 84
2004-06-11 07:52:05 51°14.623 2°50.611 5.2 179 16.3 101840 84
2004-06-11 07:52:09 51°14.625 2°50.616 4.8 183 16.3 101840 84
2004-06-11 07:52:14 51°14.627 2°50.623 3.7 186 16.3 101840 82
2004-06-11 07:52:19 51°14.629 2°50.63 5.4 184 16.3 101840 82
2004-06-11 07:52:23 51°14.63 2°50.636 6 182 16.3 101840 82
2004-06-11 07:52:29 51°14.632 2°50.644 6 176 16.3 101840 82
2004-06-11 07:52:34 51°14.634 2°50.651 5.9 183 16.3 101840 82
2004-06-11 07:52:39 51°14.636 2°50.657 5.4 179 16.3 101840 83
2004-06-11 07:52:43 51°14.637 2°50.663 5.9 179 16.3 101840 83
2004-06-11 07:52:48 51°14.639 2°50.67 5.2 180 16.2 101840 82
2004-06-11 07:52:54 51°14.641 2°50.678 7.1 182 16.2 101840 82
2004-06-11 07:52:59 51°14.643 2°50.685 6.9 183 16.2 101840 82
2004-06-11 07:53:03 51°14.644 2°50.69 7.2 178 16.2 101840 82
2004-06-11 07:53:08 51°14.645 2°50.697 8.4 180 16.2 101840 82
2004-06-11 07:53:14 51°14.647 2°50.705 6.1   16.2 101840 82
2004-06-11 07:53:19 51°14.649 2°50.712 6.3 178 16.1 101840 82